createdAt,value
2023-02-13T00:00:50.959Z,9.40
2023-02-13T00:04:32.907Z,9.40
2023-02-13T00:08:14.617Z,9.40
2023-02-13T00:11:56.437Z,9.40
2023-02-13T00:15:41.248Z,9.40
2023-02-13T00:19:23.930Z,9.40
2023-02-13T00:23:07.126Z,9.40
2023-02-13T00:26:51.727Z,9.30
2023-02-13T00:30:34.418Z,9.30
2023-02-13T00:34:16.272Z,9.40
2023-02-13T00:37:57.983Z,9.40
2023-02-13T00:41:39.942Z,9.40
2023-02-13T00:45:23.168Z,9.40
2023-02-13T00:49:09.257Z,9.40
2023-02-13T00:52:54.739Z,9.30
2023-02-13T00:56:36.578Z,9.40
2023-02-13T01:00:18.713Z,9.40
2023-02-13T01:04:04.705Z,9.40
2023-02-13T01:07:46.420Z,9.30
2023-02-13T01:11:28.168Z,9.30
2023-02-13T01:15:11.696Z,9.30
2023-02-13T01:18:54.612Z,9.30
2023-02-13T01:22:36.843Z,9.30
2023-02-13T01:26:28.806Z,9.30
2023-02-13T01:30:16.660Z,9.30
2023-02-13T01:34:02.685Z,9.30
2023-02-13T01:37:50.721Z,9.30
2023-02-13T01:41:32.740Z,9.30
2023-02-13T01:45:40.704Z,9.20
2023-02-13T01:49:26.894Z,9.20
2023-02-13T01:53:36.713Z,9.20
2023-02-13T01:57:28.170Z,9.20
2023-02-13T02:01:10.879Z,9.20
2023-02-13T02:08:44.038Z,9.30
2023-02-13T02:12:28.776Z,9.20
2023-02-13T02:16:11.002Z,9.30
2023-02-13T02:20:23.008Z,9.30
2023-02-13T02:24:10.677Z,9.20
2023-02-13T02:28:14.870Z,9.20
2023-02-13T02:32:08.633Z,9.20
2023-02-13T02:36:02.262Z,9.20
2023-02-13T02:40:05.411Z,9.20
2023-02-13T02:44:03.973Z,9.20
2023-02-13T02:48:26.072Z,9.20
2023-02-13T02:52:14.179Z,9.20
2023-02-13T02:56:18.647Z,9.20
2023-02-13T03:00:19.000Z,9.10
2023-02-13T03:04:20.179Z,9.10
2023-02-13T03:08:03.825Z,9.10
2023-02-13T03:12:09.356Z,9.10
2023-02-13T03:16:13.699Z,9.20
2023-02-13T03:20:32.559Z,9.20
2023-02-13T03:24:26.483Z,9.10
2023-02-13T03:28:36.060Z,9.10
2023-02-13T03:32:30.029Z,9.10
2023-02-13T03:36:45.858Z,9.10
2023-02-13T03:41:17.715Z,9.10
2023-02-13T03:45:30.637Z,9.10
2023-02-13T03:49:41.830Z,9.10
2023-02-13T03:53:24.506Z,9.10
2023-02-13T03:57:24.753Z,9.10
2023-02-13T04:01:09.781Z,9.10
2023-02-13T04:05:30.368Z,9.10
2023-02-13T04:09:12.209Z,9.00
2023-02-13T04:13:14.936Z,9.00
2023-02-13T04:17:07.203Z,9.10
2023-02-13T04:20:49.343Z,9.10
2023-02-13T04:24:31.360Z,9.10
2023-02-13T04:28:13.141Z,9.00
2023-02-13T04:31:55.094Z,9.00
2023-02-13T04:35:36.903Z,9.00
2023-02-13T04:39:19.010Z,9.00
2023-02-13T04:43:00.997Z,9.00
2023-02-13T04:46:42.709Z,9.00
2023-02-13T04:50:26.104Z,8.90
2023-02-13T04:54:07.760Z,8.90
2023-02-13T04:57:51.682Z,8.90
2023-02-13T05:01:33.430Z,8.90
2023-02-13T05:05:15.228Z,8.90
2023-02-13T05:08:56.978Z,8.90
2023-02-13T05:12:38.954Z,8.90
2023-02-13T05:16:20.906Z,8.80
2023-02-13T05:20:02.673Z,8.80
2023-02-13T05:23:44.459Z,8.80
2023-02-13T05:27:26.167Z,8.80
2023-02-13T05:31:08.040Z,8.80
2023-02-13T05:34:49.830Z,8.80
2023-02-13T05:38:31.708Z,8.80
2023-02-13T05:42:13.474Z,8.80
2023-02-13T05:46:06.476Z,8.70
2023-02-13T05:49:48.328Z,8.70
2023-02-13T05:53:30.093Z,8.70
2023-02-13T05:57:11.816Z,8.70
2023-02-13T06:00:59.250Z,8.70
2023-02-13T06:04:41.384Z,8.70
2023-02-13T06:08:23.724Z,8.70
2023-02-13T06:12:05.746Z,8.70
2023-02-13T06:15:48.118Z,8.70
2023-02-13T06:19:30.021Z,8.70
2023-02-13T06:23:12.104Z,8.60
2023-02-13T06:26:53.874Z,8.70
2023-02-13T06:30:35.680Z,8.60
2023-02-13T06:34:17.420Z,8.60
2023-02-13T06:37:59.145Z,8.60
2023-02-13T06:41:40.902Z,8.60
2023-02-13T06:45:22.685Z,8.60
2023-02-13T06:49:04.417Z,8.60
2023-02-13T06:52:48.225Z,8.60
2023-02-13T06:56:30.393Z,8.50
2023-02-13T07:00:14.268Z,8.50
2023-02-13T07:03:56.017Z,8.50
2023-02-13T07:07:39.698Z,8.50
2023-02-13T07:11:23.658Z,8.50
2023-02-13T07:15:06.508Z,8.50
2023-02-13T07:18:48.356Z,8.50
2023-02-13T07:22:32.491Z,8.50
2023-02-13T07:26:14.344Z,8.50
2023-02-13T07:29:58.904Z,8.50
2023-02-13T07:33:40.658Z,8.50
2023-02-13T07:37:22.416Z,8.50
2023-02-13T07:41:04.637Z,8.50
2023-02-13T07:44:46.397Z,8.50
2023-02-13T07:48:28.988Z,8.50
2023-02-13T07:52:10.844Z,8.50
2023-02-13T07:55:52.680Z,8.50
2023-02-13T07:59:34.404Z,8.50
2023-02-13T08:03:16.151Z,8.50
2023-02-13T08:06:57.897Z,8.50
2023-02-13T08:10:59.246Z,8.50
2023-02-13T08:14:41.142Z,8.50
2023-02-13T08:18:22.900Z,8.50
2023-02-13T08:22:04.746Z,8.60
2023-02-13T08:25:47.768Z,8.60
2023-02-13T08:29:29.522Z,8.60
2023-02-13T08:33:11.300Z,8.60
2023-02-13T08:36:53.064Z,8.60
2023-02-13T08:40:34.875Z,8.60
2023-02-13T08:44:16.604Z,8.60
2023-02-13T08:48:03.878Z,8.60
2023-02-13T08:51:45.689Z,8.70
2023-02-13T08:55:28.624Z,8.70
2023-02-13T08:59:10.384Z,8.70
2023-02-13T09:02:52.196Z,8.70
2023-02-13T09:06:34.107Z,8.70
2023-02-13T09:10:15.888Z,8.80
2023-02-13T09:13:57.625Z,8.80
2023-02-13T09:17:39.362Z,8.80
2023-02-13T09:21:23.640Z,8.80
2023-02-13T09:25:05.937Z,8.90
2023-02-13T09:28:47.930Z,8.90
2023-02-13T09:32:29.770Z,8.90
2023-02-13T09:36:19.221Z,8.90
2023-02-13T09:40:01.044Z,9.00
2023-02-13T09:43:42.754Z,9.00
2023-02-13T09:47:28.330Z,9.10
2023-02-13T09:51:19.593Z,9.10
2023-02-13T09:55:02.361Z,9.20
2023-02-13T09:58:48.564Z,9.20
2023-02-13T10:02:30.261Z,9.20
2023-02-13T10:06:19.699Z,9.20
2023-02-13T10:10:13.680Z,9.20
2023-02-13T10:14:07.391Z,9.20
2023-02-13T10:17:57.839Z,9.20
2023-02-13T10:21:50.867Z,9.30
2023-02-13T10:25:49.021Z,9.30
2023-02-13T10:29:57.493Z,9.30
2023-02-13T10:33:43.906Z,9.40
2023-02-13T10:37:28.451Z,9.40
2023-02-13T10:41:47.214Z,9.40
2023-02-13T10:45:47.223Z,9.40
2023-02-13T10:49:37.949Z,9.50
2023-02-13T10:53:26.241Z,9.50
2023-02-13T10:57:18.614Z,9.50
2023-02-13T11:01:05.761Z,9.40
2023-02-13T11:04:47.666Z,9.40
2023-02-13T11:08:34.299Z,9.40
2023-02-13T11:12:36.396Z,9.40
2023-02-13T11:16:18.442Z,9.40
2023-02-13T11:20:02.870Z,9.40
2023-02-13T11:23:49.240Z,9.50
2023-02-13T11:27:37.174Z,9.50
2023-02-13T11:31:29.546Z,9.50
2023-02-13T11:35:38.122Z,9.50
2023-02-13T11:39:22.329Z,9.50
2023-02-13T11:43:08.119Z,9.50
2023-02-13T11:46:52.708Z,9.50
2023-02-13T11:50:36.154Z,9.60
2023-02-13T11:54:22.874Z,9.60
2023-02-13T11:58:26.012Z,9.60
2023-02-13T12:02:19.930Z,9.60
2023-02-13T12:06:08.882Z,9.70
2023-02-13T12:09:57.550Z,9.70
2023-02-13T12:13:39.525Z,9.80
2023-02-13T12:17:31.673Z,9.80
2023-02-13T12:21:41.932Z,9.90
2023-02-13T12:25:42.919Z,9.90
2023-02-13T12:29:43.351Z,9.90
2023-02-13T12:33:50.546Z,10.00
2023-02-13T12:37:41.113Z,10.00
2023-02-13T12:41:49.972Z,10.10
2023-02-13T12:45:50.420Z,10.10
2023-02-13T12:50:07.325Z,10.10
2023-02-13T12:54:13.420Z,10.10
2023-02-13T12:58:32.137Z,10.20
2023-02-13T13:02:32.669Z,10.20
2023-02-13T13:06:19.843Z,10.30
2023-02-13T13:10:21.822Z,10.30
2023-02-13T13:14:06.559Z,10.40
2023-02-13T13:18:03.061Z,10.40
2023-02-13T13:21:59.718Z,10.40
2023-02-13T13:26:32.038Z,10.50
2023-02-13T13:30:17.240Z,10.50
2023-02-13T13:34:05.580Z,10.50
2023-02-13T13:38:02.537Z,10.60
2023-02-13T13:42:00.908Z,10.60
2023-02-13T13:46:06.891Z,10.60
2023-02-13T13:49:53.978Z,10.70
2023-02-13T13:53:38.353Z,10.70
2023-02-13T13:57:23.814Z,10.70
2023-02-13T14:01:26.694Z,10.80
2023-02-13T14:05:28.338Z,10.80
2023-02-13T14:09:43.517Z,10.80
2023-02-13T14:13:34.714Z,10.90
2023-02-13T14:17:37.516Z,10.90
2023-02-13T14:21:23.335Z,10.90
2023-02-13T14:25:07.376Z,10.90
2023-02-13T14:28:49.867Z,11.00
2023-02-13T14:32:33.603Z,11.00
2023-02-13T14:36:22.206Z,11.00
2023-02-13T14:40:15.962Z,11.00
2023-02-13T14:43:57.890Z,11.00
2023-02-13T14:47:45.946Z,11.00
2023-02-13T14:51:44.870Z,11.00
2023-02-13T14:55:32.243Z,11.00
2023-02-13T14:59:20.265Z,11.10
2023-02-13T15:03:28.309Z,11.00
2023-02-13T15:07:32.010Z,11.00
2023-02-13T15:11:35.725Z,11.10
2023-02-13T15:15:43.426Z,11.10
2023-02-13T15:19:26.654Z,11.00
2023-02-13T15:23:18.937Z,11.00
2023-02-13T15:27:03.508Z,11.00
2023-02-13T15:30:56.517Z,11.00
2023-02-13T15:34:38.489Z,11.00
2023-02-13T15:38:36.423Z,11.00
2023-02-13T15:42:18.424Z,10.90
2023-02-13T15:46:06.920Z,10.90
2023-02-13T15:49:50.479Z,10.90
2023-02-13T15:53:32.270Z,10.90
2023-02-13T15:57:14.242Z,10.90
2023-02-13T16:00:57.063Z,10.80
2023-02-13T16:04:41.600Z,10.80
2023-02-13T16:08:30.050Z,10.80
2023-02-13T16:12:25.501Z,10.80
2023-02-13T16:16:11.131Z,10.80
2023-02-13T16:19:57.474Z,10.70
2023-02-13T16:23:39.289Z,10.70
2023-02-13T16:27:26.838Z,10.70
2023-02-13T16:31:16.514Z,10.60
2023-02-13T16:35:26.482Z,10.60
2023-02-13T16:39:18.799Z,10.60
2023-02-13T16:43:39.132Z,10.60
2023-02-13T16:47:24.844Z,10.50
2023-02-13T16:51:07.034Z,10.40
2023-02-13T16:54:54.298Z,10.40
2023-02-13T16:58:36.254Z,10.30
2023-02-13T17:02:22.170Z,10.30
2023-02-13T17:06:04.779Z,10.20
2023-02-13T17:09:59.216Z,10.10
2023-02-13T17:13:42.136Z,10.00
2023-02-13T17:17:24.224Z,10.00
2023-02-13T17:21:06.176Z,9.90
2023-02-13T17:24:47.979Z,9.90
2023-02-13T17:28:30.712Z,9.80
2023-02-13T17:32:22.994Z,9.80
2023-02-13T17:36:05.149Z,9.70
2023-02-13T17:39:47.860Z,9.60
2023-02-13T17:43:30.069Z,9.60
2023-02-13T17:47:11.828Z,9.50
2023-02-13T17:50:53.587Z,9.40
2023-02-13T17:54:36.969Z,9.40
2023-02-13T17:58:18.669Z,9.40
2023-02-13T18:02:00.409Z,9.30
2023-02-13T18:05:42.174Z,9.20
2023-02-13T18:09:23.942Z,9.10
2023-02-13T18:13:06.322Z,9.10
2023-02-13T18:16:48.115Z,9.00
2023-02-13T18:20:30.016Z,8.90
2023-02-13T18:24:13.672Z,8.90
2023-02-13T18:27:55.406Z,8.80
2023-02-13T18:31:37.186Z,8.80
2023-02-13T18:35:19.250Z,8.70
2023-02-13T18:39:01.060Z,8.70
2023-02-13T18:42:43.203Z,8.60
2023-02-13T18:46:24.960Z,8.60
2023-02-13T18:50:07.786Z,8.50
2023-02-13T18:53:49.684Z,8.50
2023-02-13T18:57:31.424Z,8.40
2023-02-13T19:01:19.104Z,8.40
2023-02-13T19:05:01.387Z,8.40
2023-02-13T19:08:43.184Z,8.30
2023-02-13T19:12:25.003Z,8.30
2023-02-13T19:16:15.580Z,8.30
2023-02-13T19:19:57.398Z,8.30
2023-02-13T19:23:40.576Z,8.30
2023-02-13T19:27:22.373Z,8.30
2023-02-13T19:31:08.376Z,8.20
2023-02-13T19:34:50.353Z,8.20
2023-02-13T19:38:32.216Z,8.10
2023-02-13T19:42:14.092Z,8.10
2023-02-13T19:45:55.823Z,8.00
2023-02-13T19:49:37.614Z,8.00
2023-02-13T19:53:19.588Z,7.90
2023-02-13T19:57:07.121Z,7.90
2023-02-13T20:00:49.143Z,7.90
2023-02-13T20:04:32.255Z,7.90
2023-02-13T20:08:14.263Z,7.90
2023-02-13T20:11:55.996Z,7.80
2023-02-13T20:15:40.619Z,7.80
2023-02-13T20:19:22.374Z,7.80
2023-02-13T20:23:04.198Z,7.80
2023-02-13T20:26:46.004Z,7.70
2023-02-13T20:30:28.018Z,7.70
2023-02-13T20:34:10.144Z,7.70
2023-02-13T20:37:51.971Z,7.70
2023-02-13T20:41:36.291Z,7.60
2023-02-13T20:45:18.124Z,7.60
2023-02-13T20:48:59.906Z,7.50
2023-02-13T20:52:41.743Z,7.50
2023-02-13T20:56:25.218Z,7.50
2023-02-13T21:00:07.259Z,7.40
2023-02-13T21:03:53.729Z,7.40
2023-02-13T21:07:35.625Z,7.30
2023-02-13T21:11:18.847Z,7.30
2023-02-13T21:15:00.611Z,7.20
2023-02-13T21:18:43.270Z,7.20
2023-02-13T21:22:24.986Z,7.20
2023-02-13T21:26:16.961Z,7.10
2023-02-13T21:29:58.870Z,7.10
2023-02-13T21:33:40.828Z,7.10
2023-02-13T21:37:22.615Z,7.10
2023-02-13T21:41:09.837Z,7.10
2023-02-13T21:44:51.724Z,7.10
2023-02-13T21:48:33.578Z,7.10
2023-02-13T21:52:16.767Z,7.00
2023-02-13T21:55:58.493Z,7.00
2023-02-13T21:59:40.239Z,7.00
2023-02-13T22:03:21.996Z,6.90
2023-02-13T22:07:03.822Z,6.90
2023-02-13T22:10:56.067Z,6.90
2023-02-13T22:14:38.048Z,6.90
2023-02-13T22:18:22.893Z,6.90
2023-02-13T22:22:04.617Z,6.80
2023-02-13T22:25:50.844Z,6.80
2023-02-13T22:29:32.718Z,6.80
2023-02-13T22:33:14.486Z,6.70
2023-02-13T22:36:56.206Z,6.70
2023-02-13T22:40:38.462Z,6.70
2023-02-13T22:44:23.276Z,6.70
2023-02-13T22:48:06.498Z,6.70
2023-02-13T22:51:54.946Z,6.70
2023-02-13T22:55:39.669Z,6.70
2023-02-13T22:59:21.522Z,6.70
2023-02-13T23:03:03.417Z,6.70
2023-02-13T23:06:45.196Z,6.60
2023-02-13T23:10:26.982Z,6.60
2023-02-13T23:14:10.269Z,6.60
2023-02-13T23:18:10.523Z,6.50
2023-02-13T23:21:52.301Z,6.50
2023-02-13T23:25:38.005Z,6.50
2023-02-13T23:29:20.181Z,6.50
2023-02-13T23:33:02.004Z,6.50
2023-02-13T23:36:43.835Z,6.50
2023-02-13T23:40:28.177Z,6.50
2023-02-13T23:44:10.084Z,6.60
2023-02-13T23:47:52.469Z,6.60
2023-02-13T23:51:34.946Z,6.60
2023-02-13T23:55:16.901Z,6.60
2023-02-13T23:59:00.985Z,6.60
